createdAt,value
2023-03-06T00:02:07.902Z,6.82
2023-03-06T00:07:09.414Z,6.68
2023-03-06T00:12:10.897Z,6.91
2023-03-06T00:17:12.438Z,7.02
2023-03-06T00:22:14.893Z,7.19
2023-03-06T00:27:16.353Z,7.20
2023-03-06T00:32:17.849Z,7.24
2023-03-06T00:37:19.709Z,7.16
2023-03-06T00:42:21.180Z,7.02
2023-03-06T00:47:22.634Z,6.81
2023-03-06T00:52:24.090Z,7.02
2023-03-06T00:57:25.623Z,6.99
2023-03-06T01:02:27.170Z,7.13
2023-03-06T01:07:28.678Z,7.42
2023-03-06T01:12:30.170Z,7.14
2023-03-06T01:17:31.623Z,7.24
2023-03-06T01:22:33.111Z,7.43
2023-03-06T01:27:34.554Z,7.40
2023-03-06T01:32:36.010Z,7.26
2023-03-06T01:37:37.556Z,7.35
2023-03-06T01:42:39.061Z,7.29
2023-03-06T01:47:40.565Z,7.01
2023-03-06T01:52:50.827Z,7.25
2023-03-06T01:57:53.559Z,7.21
2023-03-06T02:03:21.962Z,7.08
2023-03-06T02:08:23.681Z,7.13
2023-03-06T02:13:25.158Z,6.94
2023-03-06T02:18:26.627Z,6.85
2023-03-06T02:23:45.929Z,6.47
2023-03-06T02:28:47.407Z,7.00
2023-03-06T02:34:20.210Z,6.93
2023-03-06T02:39:24.011Z,7.04
2023-03-06T02:44:25.493Z,6.82
2023-03-06T02:49:26.941Z,6.80
2023-03-06T02:54:28.406Z,6.91
2023-03-06T02:59:29.872Z,6.93
2023-03-06T03:04:31.403Z,6.88
2023-03-06T03:09:36.848Z,7.04
2023-03-06T03:14:38.377Z,6.91
2023-03-06T03:19:39.838Z,6.97
2023-03-06T03:24:42.406Z,6.82
2023-03-06T03:29:43.912Z,6.56
2023-03-06T03:34:45.389Z,6.81
2023-03-06T03:39:46.898Z,6.91
2023-03-06T03:44:48.374Z,6.71
2023-03-06T03:49:49.850Z,6.81
2023-03-06T03:54:51.331Z,6.79
2023-03-06T03:59:52.798Z,6.83
2023-03-06T04:04:54.324Z,6.77
2023-03-06T04:09:55.783Z,6.80
2023-03-06T04:14:57.270Z,6.76
2023-03-06T04:19:58.750Z,6.98
2023-03-06T04:25:00.227Z,6.86
2023-03-06T04:30:02.749Z,7.09
2023-03-06T04:35:04.373Z,7.02
2023-03-06T04:40:06.226Z,7.08
2023-03-06T04:45:08.569Z,7.06
2023-03-06T04:50:10.550Z,6.98
2023-03-06T04:55:13.229Z,6.91
2023-03-06T05:00:19.232Z,7.01
2023-03-06T05:05:20.734Z,7.03
2023-03-06T05:10:22.471Z,7.00
2023-03-06T05:15:23.969Z,7.39
2023-03-06T05:20:25.470Z,7.16
2023-03-06T05:25:26.964Z,6.74
2023-03-06T05:30:28.432Z,7.17
2023-03-06T05:35:29.969Z,6.84
2023-03-06T05:40:31.737Z,6.87
2023-03-06T05:45:33.270Z,7.08
2023-03-06T05:50:34.899Z,6.93
2023-03-06T05:55:36.383Z,7.00
2023-03-06T06:00:37.842Z,7.03
2023-03-06T06:05:39.788Z,6.96
2023-03-06T06:10:41.415Z,6.91
2023-03-06T06:15:42.897Z,7.02
2023-03-06T06:20:44.366Z,6.94
2023-03-06T06:25:45.847Z,7.28
2023-03-06T06:30:47.366Z,7.47
2023-03-06T06:35:48.927Z,7.28
2023-03-06T06:41:19.306Z,7.07
2023-03-06T06:46:39.936Z,6.76
2023-03-06T06:51:33.657Z,6.68
2023-03-06T06:56:35.195Z,6.91
2023-03-06T07:01:36.737Z,6.85
2023-03-06T07:06:38.248Z,7.03
2023-03-06T07:11:40.013Z,7.20
2023-03-06T07:16:41.497Z,6.93
2023-03-06T07:21:42.984Z,6.91
2023-03-06T07:26:47.886Z,7.25
2023-03-06T07:31:49.334Z,7.24
2023-03-06T07:36:50.919Z,7.12
2023-03-06T07:41:53.448Z,7.22
2023-03-06T07:46:55.060Z,7.44
2023-03-06T07:51:56.587Z,7.61
2023-03-06T07:56:58.320Z,7.60
2023-03-06T08:01:59.805Z,7.72
2023-03-06T08:07:01.275Z,7.89
2023-03-06T08:12:02.754Z,8.13
2023-03-06T08:17:04.302Z,8.55
2023-03-06T08:22:06.215Z,8.82
2023-03-06T08:27:07.684Z,8.63
2023-03-06T08:32:11.549Z,8.68
2023-03-06T08:37:13.026Z,8.72
2023-03-06T08:42:15.847Z,8.61
2023-03-06T08:47:17.389Z,8.88
2023-03-06T08:52:19.816Z,9.07
2023-03-06T08:57:21.287Z,8.85
2023-03-06T09:02:22.757Z,8.00
2023-03-06T09:07:24.291Z,7.67
2023-03-06T09:12:25.830Z,7.90
2023-03-06T09:17:27.434Z,8.13
2023-03-06T09:22:28.898Z,8.35
2023-03-06T09:27:30.398Z,8.52
2023-03-06T09:32:31.960Z,9.11
2023-03-06T09:37:33.493Z,9.08
2023-03-06T09:42:36.114Z,8.92
2023-03-06T09:47:48.188Z,9.41
2023-03-06T09:53:08.661Z,9.38
2023-03-06T09:58:18.206Z,9.83
2023-03-06T10:03:38.070Z,10.10
2023-03-06T10:08:51.366Z,10.08
2023-03-06T10:14:09.886Z,10.05
2023-03-06T10:19:15.875Z,9.92
2023-03-06T10:24:25.241Z,10.10
2023-03-06T10:29:34.875Z,10.72
2023-03-06T10:34:37.978Z,11.00
2023-03-06T10:39:39.434Z,11.03
2023-03-06T10:44:40.908Z,11.09
2023-03-06T10:49:42.395Z,10.70
2023-03-06T10:54:44.056Z,10.55
2023-03-06T10:59:58.675Z,11.15
2023-03-06T11:05:00.696Z,9.66
2023-03-06T11:10:03.886Z,10.94
2023-03-06T11:15:14.307Z,11.25
2023-03-06T11:20:24.477Z,11.43
2023-03-06T11:25:41.360Z,11.59
2023-03-06T11:30:47.405Z,11.61
2023-03-06T11:36:00.060Z,11.62
2023-03-06T11:41:02.688Z,11.29
2023-03-06T11:46:11.936Z,12.08
2023-03-06T11:51:22.828Z,12.19
2023-03-06T11:56:31.870Z,11.89
2023-03-06T12:01:47.555Z,12.25
2023-03-06T12:07:10.513Z,11.90
2023-03-06T12:12:27.635Z,11.98
2023-03-06T12:17:53.939Z,11.92
2023-03-06T12:23:14.925Z,12.18
2023-03-06T12:28:31.908Z,12.34
2023-03-06T12:33:54.926Z,11.97
2023-03-06T12:39:02.153Z,11.07
2023-03-06T12:44:31.356Z,11.76
2023-03-06T12:49:38.756Z,11.93
2023-03-06T12:54:40.828Z,11.72
2023-03-06T12:59:47.859Z,11.87
2023-03-06T13:04:56.778Z,11.75
2023-03-06T13:10:23.250Z,10.92
2023-03-06T13:15:33.579Z,10.71
2023-03-06T13:20:43.542Z,11.08
2023-03-06T13:25:49.141Z,11.21
2023-03-06T13:30:52.675Z,11.64
2023-03-06T13:36:13.819Z,11.03
2023-03-06T13:41:24.745Z,10.86
2023-03-06T13:46:31.274Z,10.84
2023-03-06T13:51:37.288Z,10.42
2023-03-06T13:57:06.344Z,10.52
2023-03-06T14:02:25.963Z,10.59
2023-03-06T14:07:27.340Z,10.65
2023-03-06T14:12:31.608Z,10.94
2023-03-06T14:17:34.551Z,11.00
2023-03-06T14:22:36.105Z,9.86
2023-03-06T14:27:51.546Z,10.16
2023-03-06T14:32:54.074Z,10.77
2023-03-06T14:37:58.000Z,10.48
2023-03-06T14:43:21.959Z,10.77
2023-03-06T14:48:24.793Z,10.69
2023-03-06T14:53:30.433Z,10.41
2023-03-06T14:58:33.483Z,10.71
2023-03-06T15:03:51.250Z,10.97
2023-03-06T15:09:17.356Z,10.12
2023-03-06T15:14:19.993Z,10.88
2023-03-06T15:19:21.677Z,10.76
2023-03-06T15:24:32.314Z,10.88
2023-03-06T15:29:33.837Z,10.95
2023-03-06T15:34:35.302Z,11.09
2023-03-06T15:39:40.674Z,10.83
2023-03-06T15:44:42.290Z,10.42
2023-03-06T15:49:43.773Z,10.92
2023-03-06T15:54:45.270Z,10.71
2023-03-06T15:59:46.754Z,10.65
2023-03-06T16:04:48.350Z,10.59
2023-03-06T16:09:49.874Z,10.36
2023-03-06T16:14:51.334Z,10.50
2023-03-06T16:19:52.987Z,10.65
2023-03-06T16:24:54.442Z,10.44
2023-03-06T16:29:55.909Z,10.36
2023-03-06T16:34:57.367Z,10.21
2023-03-06T16:39:58.820Z,9.83
2023-03-06T16:45:00.291Z,10.13
2023-03-06T16:50:02.315Z,9.68
2023-03-06T16:55:04.312Z,9.53
2023-03-06T17:00:06.584Z,9.30
2023-03-06T17:05:08.634Z,9.56
2023-03-06T17:10:12.427Z,9.46
2023-03-06T17:15:13.991Z,9.57
2023-03-06T17:20:15.621Z,9.24
2023-03-06T17:25:17.098Z,8.92
2023-03-06T17:30:18.810Z,9.33
2023-03-06T17:35:20.316Z,9.31
2023-03-06T17:40:21.811Z,9.28
2023-03-06T17:45:23.262Z,9.08
2023-03-06T17:50:24.741Z,8.75
2023-03-06T17:55:27.182Z,8.59
2023-03-06T18:00:28.645Z,8.39
2023-03-06T18:05:30.174Z,8.62
2023-03-06T18:10:31.935Z,8.63
2023-03-06T18:15:33.409Z,8.36
2023-03-06T18:20:39.888Z,8.49
2023-03-06T18:25:41.441Z,7.70
2023-03-06T18:30:42.956Z,8.60
2023-03-06T18:35:44.707Z,8.29
2023-03-06T18:40:46.303Z,8.59
2023-03-06T18:45:57.012Z,9.08
2023-03-06T18:51:09.316Z,8.62
2023-03-06T18:56:16.158Z,8.55
2023-03-06T19:01:17.798Z,8.76
2023-03-06T19:06:20.211Z,8.90
2023-03-06T19:11:21.686Z,8.83
2023-03-06T19:16:25.126Z,8.44
2023-03-06T19:21:27.090Z,8.28
2023-03-06T19:26:28.665Z,8.57
2023-03-06T19:31:30.359Z,8.24
2023-03-06T19:36:34.098Z,7.75
2023-03-06T19:41:35.576Z,8.09
2023-03-06T19:46:37.597Z,8.00
2023-03-06T19:51:39.152Z,7.86
2023-03-06T19:56:40.671Z,7.87
2023-03-06T20:01:42.206Z,7.83
2023-03-06T20:06:46.554Z,7.19
2023-03-06T20:11:48.048Z,7.07
2023-03-06T20:16:49.548Z,6.26
2023-03-06T20:21:51.064Z,5.69
2023-03-06T20:26:57.271Z,5.97
2023-03-06T20:31:58.745Z,6.14
2023-03-06T20:37:00.249Z,6.18
2023-03-06T20:42:01.762Z,6.26
2023-03-06T20:47:03.267Z,6.27
2023-03-06T20:52:04.806Z,6.09
2023-03-06T20:57:06.267Z,6.23
2023-03-06T21:02:09.651Z,6.43
2023-03-06T21:07:11.167Z,6.63
2023-03-06T21:12:12.644Z,6.86
2023-03-06T21:17:14.117Z,6.86
2023-03-06T21:22:15.598Z,6.90
2023-03-06T21:27:17.063Z,7.30
2023-03-06T21:32:18.576Z,7.03
2023-03-06T21:37:20.066Z,7.44
2023-03-06T21:42:21.561Z,7.52
2023-03-06T21:47:23.047Z,7.85
2023-03-06T21:52:26.469Z,7.88
2023-03-06T21:57:28.027Z,7.87
2023-03-06T22:02:29.480Z,8.04
2023-03-06T22:07:31.074Z,7.73
2023-03-06T22:12:35.933Z,7.69
2023-03-06T22:17:37.419Z,7.45
2023-03-06T22:22:38.897Z,7.68
2023-03-06T22:27:40.429Z,7.66
2023-03-06T22:32:41.907Z,7.75
2023-03-06T22:37:43.938Z,7.57
2023-03-06T22:42:45.401Z,7.71
2023-03-06T22:47:46.873Z,7.15
2023-03-06T22:52:48.427Z,7.29
2023-03-06T22:57:49.882Z,7.75
2023-03-06T23:02:51.406Z,7.72
2023-03-06T23:07:52.874Z,7.33
2023-03-06T23:12:54.359Z,7.47
2023-03-06T23:17:55.821Z,7.94
2023-03-06T23:22:57.310Z,7.95
2023-03-06T23:27:58.770Z,7.87
2023-03-06T23:33:00.261Z,7.77
2023-03-06T23:38:02.464Z,7.46
2023-03-06T23:43:03.930Z,7.88
2023-03-06T23:48:07.276Z,7.73
2023-03-06T23:53:08.772Z,7.43
2023-03-06T23:58:10.267Z,7.85
